createdAt,value
2018-09-11T00:01:34.498Z,95621.16
2018-09-11T00:04:01.148Z,95624.31
2018-09-11T00:06:27.795Z,95627.09
2018-09-11T00:08:54.556Z,95626.26
2018-09-11T00:11:21.264Z,95630.16
2018-09-11T00:13:47.914Z,95630.53
2018-09-11T00:16:14.549Z,95626.13
2018-09-11T00:18:41.195Z,95629.04
2018-09-11T00:21:07.875Z,95631.55
2018-09-11T00:23:34.594Z,95623.60
2018-09-11T00:26:02.446Z,95623.60
2018-09-11T00:28:27.881Z,95624.03
2018-09-11T00:30:54.528Z,95617.33
2018-09-11T00:33:21.166Z,95614.03
2018-09-11T00:35:48.061Z,95619.58
2018-09-11T00:38:14.721Z,95615.30
2018-09-11T00:40:41.371Z,95614.03
2018-09-11T00:43:08.021Z,95614.06
2018-09-11T00:45:34.661Z,95615.70
2018-09-11T00:48:01.301Z,95612.44
2018-09-11T00:50:27.934Z,95614.84
2018-09-11T00:52:54.637Z,95610.81
2018-09-11T00:55:21.273Z,95615.27
2018-09-11T00:57:47.967Z,95606.03
2018-09-11T01:00:17.555Z,95609.83
2018-09-11T01:02:44.228Z,95608.92
2018-09-11T01:05:10.890Z,95607.15
2018-09-11T01:07:37.581Z,95608.72
2018-09-11T01:10:04.315Z,95613.52
2018-09-11T01:12:30.881Z,95608.99
2018-09-11T01:14:57.529Z,95608.71
2018-09-11T01:17:24.164Z,95604.97
2018-09-11T01:19:50.891Z,95609.24
2018-09-11T01:22:20.214Z,95613.28
2018-09-11T01:24:47.013Z,95608.02
2018-09-11T01:27:13.743Z,95612.70
2018-09-11T01:29:40.380Z,95616.11
2018-09-11T01:32:07.132Z,95614.06
2018-09-11T01:34:33.748Z,95610.17
2018-09-11T01:37:02.521Z,95613.44
2018-09-11T01:39:27.035Z,95610.79
2018-09-11T01:41:53.708Z,95610.04
2018-09-11T01:44:20.441Z,95604.47
2018-09-11T01:46:47.119Z,95608.66
2018-09-11T01:49:13.727Z,95608.64
2018-09-11T01:51:40.362Z,95609.91
2018-09-11T01:54:08.342Z,95605.52
2018-09-11T01:56:33.788Z,95606.38
2018-09-11T01:59:00.471Z,95612.09
2018-09-11T02:01:27.151Z,95608.66
2018-09-11T02:03:53.770Z,95606.05
2018-09-11T02:06:20.412Z,95600.23
2018-09-11T02:08:47.100Z,95602.00
2018-09-11T02:11:13.737Z,95604.63
2018-09-11T02:13:40.382Z,95604.91
2018-09-11T02:16:07.042Z,95611.13
2018-09-11T02:18:33.679Z,95611.86
2018-09-11T02:21:00.318Z,95611.13
2018-09-11T02:23:26.958Z,95610.61
2018-09-11T02:25:53.696Z,95618.19
2018-09-11T02:28:20.336Z,95614.67
2018-09-11T02:30:46.968Z,95616.59
2018-09-11T02:33:13.623Z,95619.26
2018-09-11T02:35:40.329Z,95616.48
2018-09-11T02:38:06.935Z,95620.39
2018-09-11T02:40:33.902Z,95619.64
2018-09-11T02:43:00.555Z,95621.91
2018-09-11T02:45:27.204Z,95618.14
2018-09-11T02:47:53.881Z,95624.84
2018-09-11T02:50:20.542Z,95625.72
2018-09-11T02:52:47.182Z,95633.39
2018-09-11T02:55:13.898Z,95623.19
2018-09-11T02:57:40.542Z,95624.45
2018-09-11T03:00:07.203Z,95623.33
2018-09-11T03:02:33.849Z,95620.92
2018-09-11T03:05:00.575Z,95618.42
2018-09-11T03:07:27.257Z,95620.02
2018-09-11T03:09:53.886Z,95624.86
2018-09-11T03:12:20.493Z,95621.62
2018-09-11T03:14:47.164Z,95625.14
2018-09-11T03:17:13.801Z,95625.97
2018-09-11T03:19:40.456Z,95633.04
2018-09-11T03:22:09.836Z,95638.22
2018-09-11T03:24:36.442Z,95628.74
2018-09-11T03:27:03.074Z,95630.51
2018-09-11T03:29:29.768Z,95628.23
2018-09-11T03:31:56.439Z,95629.12
2018-09-11T03:34:23.100Z,95631.64
2018-09-11T03:36:49.727Z,95632.02
2018-09-11T03:39:16.443Z,95630.25
2018-09-11T03:41:43.082Z,95634.18
2018-09-11T03:44:11.087Z,95631.91
2018-09-11T03:46:36.376Z,95636.73
2018-09-11T03:49:03.030Z,95642.13
2018-09-11T03:51:29.667Z,95639.01
2018-09-11T03:53:56.348Z,95638.76
2018-09-11T03:56:22.998Z,95641.02
2018-09-11T03:58:50.171Z,95641.63
2018-09-11T04:01:17.114Z,95642.77
2018-09-11T04:03:43.806Z,95639.24
2018-09-11T04:06:10.476Z,95641.25
2018-09-11T04:08:37.109Z,95644.41
2018-09-11T04:11:03.768Z,95638.82
2018-09-11T04:13:30.493Z,95644.00
2018-09-11T04:15:57.139Z,95649.45
2018-09-11T04:18:23.776Z,95657.14
2018-09-11T04:20:50.419Z,95657.77
2018-09-11T04:23:17.052Z,95663.30
2018-09-11T04:25:43.711Z,95675.44
2018-09-11T04:28:12.746Z,95673.25
2018-09-11T04:30:39.370Z,95678.93
2018-09-11T04:33:06.010Z,95686.58
2018-09-11T04:35:32.648Z,95691.73
2018-09-11T04:37:59.387Z,95691.72
2018-09-11T04:40:26.151Z,95696.27
2018-09-11T04:42:52.784Z,95699.30
2018-09-11T04:45:19.478Z,95695.98
2018-09-11T04:47:46.178Z,95699.39
2018-09-11T04:50:12.828Z,95694.67
2018-09-11T04:52:39.590Z,95698.70
2018-09-11T04:55:06.319Z,95699.95
2018-09-11T04:57:33.079Z,95702.81
2018-09-11T04:59:59.815Z,95702.39
2018-09-11T05:02:26.449Z,95699.95
2018-09-11T05:04:53.098Z,95702.00
2018-09-11T05:07:19.733Z,95693.27
2018-09-11T05:09:46.387Z,95705.80
2018-09-11T05:12:13.162Z,95709.55
2018-09-11T05:14:39.817Z,95708.90
2018-09-11T05:17:06.475Z,95706.83
2018-09-11T05:19:33.227Z,95703.23
2018-09-11T05:21:59.856Z,95703.07
2018-09-11T05:24:26.538Z,95697.19
2018-09-11T05:26:53.196Z,95699.03
2018-09-11T05:29:19.966Z,95698.94
2018-09-11T05:31:46.590Z,95703.84
2018-09-11T05:34:13.277Z,95704.13
2018-09-11T05:36:40.005Z,95703.38
2018-09-11T05:39:06.741Z,95701.66
2018-09-11T05:41:33.507Z,95699.28
2018-09-11T05:44:00.216Z,95705.11
2018-09-11T05:46:26.912Z,95707.36
2018-09-11T05:48:56.921Z,95702.33
2018-09-11T05:51:23.616Z,95707.12
2018-09-11T05:53:51.645Z,95705.89
2018-09-11T05:56:16.942Z,95707.91
2018-09-11T05:58:44.979Z,95704.93
2018-09-11T06:01:10.323Z,95709.22
2018-09-11T06:03:37.020Z,95697.77
2018-09-11T06:06:03.693Z,95698.94
2018-09-11T06:08:30.639Z,95699.13
2018-09-11T06:10:57.297Z,95699.02
2018-09-11T06:13:24.046Z,95701.02
2018-09-11T06:15:50.747Z,95701.27
2018-09-11T06:18:17.394Z,95697.44
2018-09-11T06:20:44.051Z,95705.59
2018-09-11T06:23:10.716Z,95699.05
2018-09-11T06:25:37.428Z,95697.85
2018-09-11T06:28:04.071Z,95691.48
2018-09-11T06:30:30.866Z,95693.58
2018-09-11T06:32:57.614Z,95696.88
2018-09-11T06:35:24.325Z,95680.83
2018-09-11T06:37:51.076Z,95692.78
2018-09-11T06:40:19.105Z,95691.56
2018-09-11T06:42:44.560Z,95696.52
2018-09-11T06:45:11.423Z,95702.91
2018-09-11T06:47:38.249Z,95698.33
2018-09-11T06:50:04.889Z,95715.31
2018-09-11T06:52:36.236Z,95706.10
2018-09-11T06:54:58.243Z,95711.21
2018-09-11T06:57:24.973Z,95714.80
2018-09-11T06:59:51.625Z,95718.26
2018-09-11T07:02:18.270Z,95718.31
2018-09-11T07:04:45.041Z,95720.23
2018-09-11T07:07:11.688Z,95718.19
2018-09-11T07:09:39.530Z,95728.13
2018-09-11T07:12:07.476Z,95722.97
2018-09-11T07:14:33.020Z,95725.77
2018-09-11T07:16:59.684Z,95716.80
2018-09-11T07:19:26.380Z,95724.48
2018-09-11T07:21:53.013Z,95726.69
2018-09-11T07:24:19.659Z,95724.06
2018-09-11T07:26:46.356Z,95719.72
2018-09-11T07:29:13.029Z,95718.77
2018-09-11T07:31:39.831Z,95717.37
2018-09-11T07:34:06.496Z,95709.47
2018-09-11T07:36:33.178Z,95698.40
2018-09-11T07:39:03.235Z,95712.19
2018-09-11T07:41:28.594Z,95705.77
2018-09-11T07:43:55.306Z,95705.32
2018-09-11T07:46:22.082Z,95701.23
2018-09-11T07:48:48.683Z,95711.13
2018-09-11T07:51:15.375Z,95695.69
2018-09-11T07:53:42.023Z,95710.92
2018-09-11T07:56:08.774Z,95707.83
2018-09-11T07:58:35.471Z,95714.75
2018-09-11T08:01:02.104Z,95722.83
2018-09-11T08:03:28.810Z,95716.20
2018-09-11T08:05:56.860Z,95712.14
2018-09-11T08:08:22.154Z,95714.98
2018-09-11T08:10:48.967Z,95713.36
2018-09-11T08:13:15.585Z,95713.97
2018-09-11T08:15:42.273Z,95714.62
2018-09-11T08:18:09.072Z,95721.36
2018-09-11T08:20:35.819Z,95716.13
2018-09-11T08:23:02.527Z,95722.25
2018-09-11T08:25:29.215Z,95717.56
2018-09-11T08:27:55.902Z,95726.80
2018-09-11T08:30:22.572Z,95732.91
2018-09-11T08:32:49.317Z,95723.43
2018-09-11T08:35:16.030Z,95726.48
2018-09-11T08:37:42.671Z,95729.08
2018-09-11T08:40:09.332Z,95732.47
2018-09-11T08:42:35.988Z,95730.05
2018-09-11T08:45:02.647Z,95731.03
2018-09-11T08:47:29.418Z,95729.56
2018-09-11T08:49:56.153Z,95731.80
2018-09-11T08:52:22.832Z,95732.57
2018-09-11T08:54:49.445Z,95727.86
2018-09-11T08:57:16.140Z,95726.42
2018-09-11T08:59:42.827Z,95722.53
2018-09-11T09:02:09.544Z,95727.85
2018-09-11T09:04:45.439Z,95723.12
2018-09-11T09:07:12.106Z,95723.50
2018-09-11T09:09:38.755Z,95715.58
2018-09-11T09:12:05.496Z,95717.73
2018-09-11T09:14:32.173Z,95713.70
2018-09-11T09:16:58.832Z,95708.37
2018-09-11T09:19:25.522Z,95715.13
2018-09-11T09:21:52.179Z,95707.39
2018-09-11T09:24:18.908Z,95699.89
2018-09-11T09:26:45.561Z,95697.98
2018-09-11T09:29:12.219Z,95705.36
2018-09-11T09:31:38.921Z,95693.03
2018-09-11T09:34:05.996Z,95691.77
2018-09-11T09:36:35.964Z,95694.39
2018-09-11T09:39:02.608Z,95696.89
2018-09-11T09:41:29.260Z,95694.44
2018-09-11T09:43:56.054Z,95693.25
2018-09-11T09:46:22.658Z,95691.69
2018-09-11T09:48:49.377Z,95684.09
2018-09-11T09:51:16.068Z,95678.42
2018-09-11T09:53:43.118Z,95685.19
2018-09-11T09:56:09.832Z,95680.61
2018-09-11T09:58:36.614Z,95683.02
2018-09-11T10:01:03.359Z,95679.00
2018-09-11T10:03:30.123Z,95666.81
2018-09-11T10:05:56.835Z,95666.63
2018-09-11T10:08:23.504Z,95662.06
2018-09-11T10:10:50.161Z,95658.37
2018-09-11T10:13:16.905Z,95659.95
2018-09-11T10:15:43.623Z,95661.52
2018-09-11T10:18:10.314Z,95663.25
2018-09-11T10:20:36.995Z,95669.23
2018-09-11T10:23:05.933Z,95667.56
2018-09-11T10:25:32.617Z,95661.42
2018-09-11T10:27:59.397Z,95662.44
2018-09-11T10:30:26.016Z,95665.61
2018-09-11T10:32:52.697Z,95660.14
2018-09-11T10:35:19.455Z,95662.60
2018-09-11T10:37:46.093Z,95664.95
2018-09-11T10:40:12.778Z,95659.52
2018-09-11T10:42:39.428Z,95665.33
2018-09-11T10:45:06.182Z,95658.11
2018-09-11T10:47:32.877Z,95661.39
2018-09-11T10:49:59.755Z,95657.16
2018-09-11T10:52:26.537Z,95652.78
2018-09-11T10:54:53.214Z,95653.86
2018-09-11T10:57:22.336Z,95648.74
2018-09-11T10:59:49.054Z,95641.84
2018-09-11T11:02:15.705Z,95646.87
2018-09-11T11:04:45.762Z,95649.98
2018-09-11T11:07:12.516Z,95645.41
2018-09-11T11:09:39.201Z,95651.80
2018-09-11T11:12:05.841Z,95649.63
2018-09-11T11:14:32.500Z,95641.19
2018-09-11T11:17:02.284Z,95648.38
2018-09-11T11:19:28.892Z,95640.19
2018-09-11T11:21:55.561Z,95635.80
2018-09-11T11:24:22.269Z,95641.84
2018-09-11T11:26:48.930Z,95644.05
2018-09-11T11:29:15.625Z,95642.34
2018-09-11T11:31:45.174Z,95638.60
2018-09-11T11:34:14.727Z,95648.45
2018-09-11T11:36:41.567Z,95646.34
2018-09-11T11:39:08.123Z,95642.06
2018-09-11T11:41:34.818Z,95640.45
2018-09-11T11:44:01.856Z,95648.27
2018-09-11T11:46:28.568Z,95643.23
2018-09-11T11:48:55.215Z,95642.10
2018-09-11T11:51:24.805Z,95636.13
2018-09-11T11:53:48.783Z,95636.31
2018-09-11T11:56:15.452Z,95629.59
2018-09-11T11:58:42.112Z,95618.35
2018-09-11T12:01:08.897Z,95619.28
2018-09-11T12:03:35.551Z,95617.92
2018-09-11T12:06:02.237Z,95606.80
2018-09-11T12:08:28.910Z,95620.92
2018-09-11T12:10:55.595Z,95612.41
2018-09-11T12:13:22.245Z,95611.58
2018-09-11T12:15:48.904Z,95618.05
2018-09-11T12:18:15.576Z,95615.56
2018-09-11T12:20:45.135Z,95601.95
2018-09-11T12:23:15.105Z,95605.08
2018-09-11T12:25:40.460Z,95607.91
2018-09-11T12:28:10.176Z,95600.46
2018-09-11T12:30:36.776Z,95603.14
2018-09-11T12:33:03.423Z,95597.11
2018-09-11T12:35:30.071Z,95589.84
2018-09-11T12:37:56.858Z,95597.50
2018-09-11T12:40:23.604Z,95598.16
2018-09-11T12:42:50.392Z,95595.37
2018-09-11T12:45:17.041Z,95591.91
2018-09-11T12:47:44.271Z,95584.12
2018-09-11T12:50:10.423Z,95585.80
2018-09-11T12:52:37.163Z,95584.09
2018-09-11T12:55:03.783Z,95585.75
2018-09-11T12:57:30.503Z,95586.67
2018-09-11T12:59:57.134Z,95587.58
2018-09-11T13:02:23.900Z,95585.94
2018-09-11T13:04:50.490Z,95579.27
2018-09-11T13:07:18.613Z,95576.12
2018-09-11T13:09:47.923Z,95587.52
2018-09-11T13:12:14.728Z,95588.49
2018-09-11T13:14:41.379Z,95592.32
2018-09-11T13:17:08.040Z,95588.70
2018-09-11T13:19:34.690Z,95588.74
2018-09-11T13:22:01.398Z,95585.28
2018-09-11T13:24:28.090Z,95577.88
2018-09-11T13:26:56.103Z,95584.35
2018-09-11T13:29:21.437Z,95579.97
2018-09-11T13:31:48.205Z,95587.86
2018-09-11T13:34:14.813Z,95581.97
2018-09-11T13:36:41.460Z,95578.80
2018-09-11T13:39:08.261Z,95570.09
2018-09-11T13:41:34.898Z,95587.48
2018-09-11T13:44:01.577Z,95580.91
2018-09-11T13:46:29.612Z,95584.25
2018-09-11T13:48:54.897Z,95583.34
2018-09-11T13:51:21.615Z,95583.77
2018-09-11T13:53:48.272Z,95574.60
2018-09-11T13:56:14.968Z,95580.26
2018-09-11T13:58:41.606Z,95570.78
2018-09-11T14:01:08.218Z,95575.73
2018-09-11T14:03:34.970Z,95567.27
2018-09-11T14:06:01.589Z,95572.26
2018-09-11T14:08:28.233Z,95576.02
2018-09-11T14:10:54.878Z,95573.80
2018-09-11T14:13:21.563Z,95563.89
2018-09-11T14:15:48.269Z,95563.22
2018-09-11T14:18:14.994Z,95561.24
2018-09-11T14:20:41.658Z,95559.69
2018-09-11T14:23:08.292Z,95562.67
2018-09-11T14:25:34.992Z,95564.39
2018-09-11T14:28:01.579Z,95560.51
2018-09-11T14:30:28.262Z,95560.52
2018-09-11T14:32:54.892Z,95554.84
2018-09-11T14:35:21.681Z,95556.50
2018-09-11T14:37:48.335Z,95554.59
2018-09-11T14:40:15.022Z,95561.56
2018-09-11T14:42:43.034Z,95564.61
2018-09-11T14:45:08.366Z,95575.09
2018-09-11T14:47:35.038Z,95572.98
2018-09-11T14:50:01.694Z,95576.73
2018-09-11T14:52:28.368Z,95571.73
2018-09-11T14:54:55.044Z,95571.66
2018-09-11T14:57:21.752Z,95568.86
2018-09-11T14:59:49.588Z,95572.06
2018-09-11T15:02:16.235Z,95574.70
2018-09-11T15:04:42.921Z,95577.77
2018-09-11T15:07:09.561Z,95580.45
2018-09-11T15:09:36.275Z,95576.55
2018-09-11T15:12:02.916Z,95586.20
2018-09-11T15:14:29.553Z,95583.22
2018-09-11T15:16:56.294Z,95588.22
2018-09-11T15:19:22.935Z,95589.45
2018-09-11T15:21:49.633Z,95582.14
2018-09-11T15:24:19.342Z,95586.90
2018-09-11T15:26:46.021Z,95571.72
2018-09-11T15:29:12.656Z,95591.27
2018-09-11T15:31:39.344Z,95586.90
2018-09-11T15:34:05.994Z,95594.56
2018-09-11T15:36:32.706Z,95593.36
2018-09-11T15:38:59.404Z,95585.36
2018-09-11T15:41:26.045Z,95592.61
2018-09-11T15:43:52.774Z,95596.20
2018-09-11T15:46:19.398Z,95591.58
2018-09-11T15:48:46.059Z,95593.72
2018-09-11T15:51:12.736Z,95590.53
2018-09-11T15:53:39.383Z,95592.77
2018-09-11T15:56:06.016Z,95592.62
2018-09-11T15:58:32.713Z,95591.28
2018-09-11T16:00:59.356Z,95594.55
2018-09-11T16:03:32.341Z,95597.60
2018-09-11T16:05:59.043Z,95595.73
2018-09-11T16:08:25.819Z,95588.42
2018-09-11T16:10:55.403Z,95601.38
2018-09-11T16:13:22.161Z,95593.80
2018-09-11T16:15:48.849Z,95594.02
2018-09-11T16:18:15.545Z,95584.69
2018-09-11T16:20:42.281Z,95594.46
2018-09-11T16:23:09.291Z,95596.67
2018-09-11T16:25:36.000Z,95604.91
2018-09-11T16:28:02.604Z,95599.16
2018-09-11T16:30:29.281Z,95599.11
2018-09-11T16:32:55.917Z,95599.49
2018-09-11T16:35:22.584Z,95602.95
2018-09-11T16:37:51.814Z,95602.48
2018-09-11T16:40:18.453Z,95603.02
2018-09-11T16:42:45.193Z,95608.13
2018-09-11T16:45:11.840Z,95605.48
2018-09-11T16:47:38.496Z,95612.88
2018-09-11T16:50:05.135Z,95612.17
2018-09-11T16:52:31.781Z,95618.52
2018-09-11T16:54:58.419Z,95621.52
2018-09-11T16:57:25.118Z,95621.61
2018-09-11T16:59:54.926Z,95627.50
2018-09-11T17:02:21.672Z,95624.55
2018-09-11T17:04:48.311Z,95630.72
2018-09-11T17:07:14.963Z,95627.71
2018-09-11T17:09:41.687Z,95631.39
2018-09-11T17:12:08.332Z,95632.64
2018-09-11T17:14:34.988Z,95630.34
2018-09-11T17:17:02.989Z,95633.16
2018-09-11T17:19:28.476Z,95626.84
2018-09-11T17:21:55.122Z,95631.88
2018-09-11T17:24:21.775Z,95631.44
2018-09-11T17:26:48.561Z,95639.92
2018-09-11T17:29:15.164Z,95647.61
2018-09-11T17:31:41.801Z,95645.65
2018-09-11T17:34:08.512Z,95649.20
2018-09-11T17:36:35.147Z,95649.72
2018-09-11T17:39:01.894Z,95654.44
2018-09-11T17:41:28.583Z,95651.44
2018-09-11T17:43:56.631Z,95655.50
2018-09-11T17:46:23.351Z,95667.16
2018-09-11T17:48:48.667Z,95669.83
2018-09-11T17:51:15.234Z,95678.58
2018-09-11T17:53:41.931Z,95679.39
2018-09-11T17:56:08.616Z,95673.63
2018-09-11T17:58:35.356Z,95677.58
2018-09-11T18:01:02.017Z,95678.17
2018-09-11T18:03:32.793Z,95678.13
2018-09-11T18:05:58.075Z,95685.44
2018-09-11T18:08:27.761Z,95698.57
2018-09-11T18:10:54.484Z,95697.27
2018-09-11T18:13:21.087Z,95697.19
2018-09-11T18:15:47.803Z,95707.32
2018-09-11T18:18:14.434Z,95703.91
2018-09-11T18:20:41.133Z,95703.52
2018-09-11T18:23:07.784Z,95702.67
2018-09-11T18:25:34.417Z,95698.16
2018-09-11T18:28:01.136Z,95703.85
2018-09-11T18:30:27.803Z,95701.10
2018-09-11T18:32:54.438Z,95706.59
2018-09-11T18:35:21.135Z,95707.48
2018-09-11T18:37:47.767Z,95711.66
2018-09-11T18:40:15.431Z,95714.32
2018-09-11T18:42:42.103Z,95712.34
2018-09-11T18:45:08.785Z,95712.88
2018-09-11T18:47:35.421Z,95718.45
2018-09-11T18:50:02.154Z,95719.72
2018-09-11T18:52:31.697Z,95718.33
2018-09-11T18:54:58.360Z,95720.68
2018-09-11T18:57:25.018Z,95724.61
2018-09-11T18:59:51.704Z,95724.52
2018-09-11T19:02:18.344Z,95721.19
2018-09-11T19:04:45.009Z,95727.18
2018-09-11T19:07:11.654Z,95719.70
2018-09-11T19:09:38.294Z,95722.78
2018-09-11T19:12:05.055Z,95718.13
2018-09-11T19:14:31.736Z,95721.80
2018-09-11T19:16:58.411Z,95722.31
2018-09-11T19:19:25.099Z,95728.05
2018-09-11T19:21:51.735Z,95730.95
2018-09-11T19:24:18.431Z,95729.56
2018-09-11T19:26:45.119Z,95720.95
2018-09-11T19:29:14.872Z,95724.91
2018-09-11T19:31:41.563Z,95718.86
2018-09-11T19:34:09.532Z,95722.66
2018-09-11T19:36:35.057Z,95724.91
2018-09-11T19:39:01.740Z,95730.13
2018-09-11T19:41:28.465Z,95725.63
2018-09-11T19:43:55.136Z,95731.94
2018-09-11T19:46:21.906Z,95723.61
2018-09-11T19:48:48.586Z,95722.56
2018-09-11T19:51:15.221Z,95723.07
2018-09-11T19:53:41.891Z,95729.31
2018-09-11T19:56:09.960Z,95729.47
2018-09-11T19:58:35.310Z,95727.47
2018-09-11T20:01:01.984Z,95725.31
2018-09-11T20:03:28.715Z,95726.17
2018-09-11T20:05:58.384Z,95726.80
2018-09-11T20:08:26.322Z,95727.59
2018-09-11T20:10:51.698Z,95732.66
2018-09-11T20:13:18.745Z,95731.98
2018-09-11T20:15:45.667Z,95733.60
2018-09-11T20:18:12.353Z,95732.08
2018-09-11T20:20:38.985Z,95738.82
2018-09-11T20:23:05.661Z,95734.14
2018-09-11T20:25:32.419Z,95740.47
2018-09-11T20:27:58.951Z,95733.37
2018-09-11T20:30:28.247Z,95737.20
2018-09-11T20:32:54.888Z,95732.55
2018-09-11T20:35:21.531Z,95731.38
2018-09-11T20:37:48.175Z,95728.37
2018-09-11T20:40:14.877Z,95732.02
2018-09-11T20:42:42.630Z,95738.42
2018-09-11T20:45:08.272Z,95743.20
2018-09-11T20:47:34.845Z,95739.66
2018-09-11T20:50:01.630Z,95740.19
2018-09-11T20:52:28.310Z,95743.05
2018-09-11T20:54:55.108Z,95742.95
2018-09-11T20:57:21.810Z,95741.18
2018-09-11T20:59:48.447Z,95741.58
2018-09-11T21:02:15.099Z,95738.06
2018-09-11T21:04:41.730Z,95747.33
2018-09-11T21:07:08.377Z,95745.56
2018-09-11T21:09:35.107Z,95746.95
2018-09-11T21:12:01.752Z,95742.13
2018-09-11T21:14:28.441Z,95744.95
2018-09-11T21:16:55.082Z,95748.98
2018-09-11T21:19:21.767Z,95754.31
2018-09-11T21:21:48.400Z,95747.48
2018-09-11T21:24:15.168Z,95748.34
2018-09-11T21:26:41.800Z,95751.79
2018-09-11T21:29:08.499Z,95751.25
2018-09-11T21:31:35.139Z,95747.10
2018-09-11T21:34:01.834Z,95744.97
2018-09-11T21:36:28.625Z,95748.39
2018-09-11T21:38:55.280Z,95751.30
2018-09-11T21:41:22.059Z,95756.62
2018-09-11T21:43:48.696Z,95760.31
2018-09-11T21:46:15.349Z,95765.10
2018-09-11T21:48:42.027Z,95763.60
2018-09-11T21:51:08.639Z,95764.61
2018-09-11T21:53:35.312Z,95767.91
2018-09-11T21:56:01.982Z,95762.83
2018-09-11T21:58:28.588Z,95759.56
2018-09-11T22:00:55.235Z,95755.41
2018-09-11T22:03:21.918Z,95758.33
2018-09-11T22:05:48.635Z,95765.53
2018-09-11T22:08:15.257Z,95765.66
2018-09-11T22:10:41.952Z,95762.50
2018-09-11T22:13:09.997Z,95763.74
2018-09-11T22:15:35.329Z,95761.59
2018-09-11T22:18:02.026Z,95768.33
2018-09-11T22:20:28.749Z,95756.97
2018-09-11T22:22:55.378Z,95770.23
2018-09-11T22:25:22.023Z,95774.43
2018-09-11T22:27:48.766Z,95772.53
2018-09-11T22:30:18.093Z,95771.65
2018-09-11T22:32:44.796Z,95773.67
2018-09-11T22:35:11.417Z,95769.22
2018-09-11T22:37:38.110Z,95770.51
2018-09-11T22:40:04.751Z,95777.23
2018-09-11T22:42:31.392Z,95773.05
2018-09-11T22:44:58.157Z,95773.43
2018-09-11T22:47:24.833Z,95772.95
2018-09-11T22:49:51.568Z,95770.92
2018-09-11T22:52:19.623Z,95760.41
2018-09-11T22:54:44.952Z,95754.64
2018-09-11T22:57:11.585Z,95764.99
2018-09-11T22:59:38.227Z,95768.05
2018-09-11T23:02:11.389Z,95764.67
2018-09-11T23:04:38.068Z,95762.48
2018-09-11T23:07:07.982Z,95766.63
2018-09-11T23:09:34.672Z,95764.65
2018-09-11T23:12:01.440Z,95772.11
2018-09-11T23:14:28.056Z,95768.09
2018-09-11T23:16:54.689Z,95770.10
2018-09-11T23:19:21.327Z,95764.39
2018-09-11T23:21:47.978Z,95772.02
2018-09-11T23:24:14.614Z,95768.34
2018-09-11T23:26:41.352Z,95764.55
2018-09-11T23:29:08.019Z,95766.98
2018-09-11T23:31:34.656Z,95758.23
2018-09-11T23:34:02.246Z,95759.47
2018-09-11T23:36:28.975Z,95763.69
2018-09-11T23:38:55.753Z,95765.30
2018-09-11T23:41:24.494Z,95766.33
2018-09-11T23:43:52.099Z,95766.86
2018-09-11T23:46:18.782Z,95766.22
2018-09-11T23:48:45.423Z,95762.92
2018-09-11T23:51:12.063Z,95760.28
2018-09-11T23:53:38.724Z,95757.39
2018-09-11T23:56:05.365Z,95758.25
2018-09-11T23:58:32.116Z,95753.20
